Courtenay, Canada
Current Conditions -  °F | °C
As of 9:00 AM on Friday 24 Oct 2014 (Local Time) from CYQQ Reporting Station
Overcast Overcast  
Wind Chill: 45°   Ceiling: 2300
Heat Index: 45°   Visibility: 20mi
Dew Point: 45°   Wind: 2mph
Humidity: 100%   Direction: 30°NNE
Pressure: 30.05"   Gusts: NA
Location:  49.69°N, 124.99°W
Report Text: CYQQ 241600Z 03002KT 20SM BKN023 OVC090 07/07 A3005 RMK SC6AC2 SLP177
Loading
Personal Weather Stations






























Interactive Weather Map
Tropical Storm Tracking
New forecast layout! Learn more

10-Day Weather Forecast

Advertisements
Track Severe Weather on mobile